Date,TemperatureHighF,TemperatureAvgF,TemperatureLowF,DewpointHighF,DewpointAvgF,DewpointLowF,HumidityHigh,HumidityAvg,HumidityLow,PressureMaxIn,PressureMinIn,WindSpeedMaxMPH,WindSpeedAvgMPH,GustSpeedMaxMPH,PrecipitationSumIn
2013-3-1,61.3,47.2,33.4,19.6,13.0,4.4,35,25,17,30.05,29.94,13,6,24,0.00
2013-3-2,68.4,50.9,0.0,23.3,20.1,16.9,52,31,16,30.14,29.89,7,2,15,0.00
2013-3-3,71.4,52.8,0.0,22.0,16.7,5.9,51,27,10,29.89,29.64,10,3,19,0.00
2013-3-4,63.7,55.2,0.0,23.1,19.0,13.1,33,24,16,29.83,29.59,16,5,33,0.00
2013-3-5,63.3,47.9,0.0,22.1,16.9,9.8,62,32,13,29.99,29.83,8,3,15,0.00
2013-3-6,68.4,55.2,44.4,25.7,21.4,16.3,36,27,18,29.88,29.71,10,4,20,0.00
2013-3-7,73.6,56.7,34.9,21.3,17.5,14.0,46,24,12,29.80,29.67,12,4,22,0.00
2013-3-8,63.0,49.1,40.6,42.1,25.4,12.2,83,44,19,29.72,29.51,16,5,31,0.20
2013-3-9,47.1,39.9,0.0,33.7,23.9,15.8,76,54,30,29.69,29.51,13,4,24,0.00
2013-3-10,54.3,41.6,30.6,28.0,22.5,12.7,80,51,23,29.89,29.66,12,4,25,0.00
2013-3-11,63.9,44.7,30.2,20.6,17.9,13.2,56,35,14,29.92,29.77,9,3,17,0.00
2013-3-12,69.3,53.8,36.3,23.9,20.8,18.4,51,29,16,29.94,29.77,10,2,18,0.00
2013-3-13,72.3,55.4,36.0,26.5,22.0,15.5,58,30,15,30.03,29.91,10,2,16,0.00
2013-3-14,76.8,59.2,43.2,23.6,18.3,12.9,36,22,10,30.01,29.92,7,2,14,0.00
2013-3-15,80.6,60.6,39.9,21.1,16.5,11.8,38,20,10,29.93,29.70,8,1,14,0.00
2013-3-16,73.9,61.6,49.3,33.1,20.3,13.7,43,21,12,29.71,29.55,14,5,28,0.00
2013-3-17,71.2,56.5,44.8,35.7,22.2,0.9,59,33,10,29.67,29.50,15,4,30,0.00
2013-3-18,68.5,54.6,38.8,11.8,7.6,2.3,31,16,10,29.78,29.61,18,4,28,0.00
2013-3-19,64.8,51.8,0.0,17.4,10.8,4.0,26,19,12,29.89,29.69,13,2,29,0.00
2013-3-20,65.5,51.3,32.9,25.0,17.2,11.9,44,27,16,29.96,29.64,10,2,20,0.00
2013-3-21,73.6,60.1,0.0,31.3,19.4,7.0,40,23,10,29.65,29.46,18,6,32,0.00
2013-3-22,68.2,53.6,36.9,26.0,12.6,6.1,35,21,10,29.61,29.42,13,3,26,0.00
2013-3-23,51.8,42.1,32.5,25.8,3.4,-13.4,47,22,10,29.81,29.45,23,10,47,0.00
2013-3-24,54.7,40.6,25.7,0.7,-4.8,-11.6,23,15,10,29.85,29.65,16,4,29,0.00
2013-3-25,58.5,42.3,25.3,10.6,6.0,-2.2,43,23,14,29.92,29.75,13,2,24,0.00
2013-3-26,67.1,50.2,31.1,12.9,9.3,5.6,34,20,11,29.90,29.70,14,5,27,0.00
2013-3-27,73.8,60.4,45.3,15.4,11.7,6.8,26,15,10,29.82,29.73,9,2,25,0.00
2013-3-28,73.9,62.7,0.0,22.4,15.4,9.2,24,16,10,29.87,29.78,14,2,25,0.00
2013-3-29,75.6,62.3,47.1,24.9,19.5,13.7,36,21,10,29.90,29.81,8,1,18,0.00
2013-3-30,75.7,60.6,41.7,25.6,19.9,15.9,40,22,11,29.92,29.78,10,2,24,0.00
2013-3-31,75.4,62.7,49.8,31.2,26.2,23.7,38,26,16,29.90,29.75,6,2,18,0.00